createdAt,value
2023-01-15T00:02:24.757Z,5.60
2023-01-15T00:04:52.394Z,5.60
2023-01-15T00:07:19.769Z,5.60
2023-01-15T00:09:47.040Z,5.60
2023-01-15T00:12:14.301Z,5.60
2023-01-15T00:14:42.593Z,5.60
2023-01-15T00:17:09.866Z,5.60
2023-01-15T00:19:37.257Z,5.60
2023-01-15T00:22:04.641Z,5.70
2023-01-15T00:24:50.374Z,5.70
2023-01-15T00:27:36.338Z,5.80
2023-01-15T00:30:03.926Z,5.80
2023-01-15T00:32:31.374Z,5.80
2023-01-15T00:34:59.439Z,5.80
2023-01-15T00:37:27.179Z,5.80
2023-01-15T00:39:54.448Z,5.80
2023-01-15T00:42:21.714Z,5.70
2023-01-15T00:44:48.992Z,5.70
2023-01-15T00:47:16.351Z,5.70
2023-01-15T00:49:44.448Z,5.80
2023-01-15T00:52:14.348Z,5.80
2023-01-15T00:54:41.661Z,5.80
2023-01-15T00:57:11.425Z,5.90
2023-01-15T00:59:38.732Z,5.90
2023-01-15T01:02:06.197Z,6.00
2023-01-15T01:04:33.514Z,6.00
2023-01-15T01:07:00.740Z,6.00
2023-01-15T01:09:28.108Z,6.00
2023-01-15T01:11:56.584Z,6.10
2023-01-15T01:14:24.547Z,6.10
2023-01-15T01:16:51.768Z,6.10
2023-01-15T01:19:21.512Z,6.10
2023-01-15T01:21:51.072Z,6.20
2023-01-15T01:24:21.184Z,6.20
2023-01-15T01:26:49.774Z,6.20
2023-01-15T01:29:20.638Z,6.20
2023-01-15T01:31:48.409Z,6.20
2023-01-15T01:34:15.705Z,6.30
2023-01-15T01:36:44.754Z,6.30
2023-01-15T01:39:18.013Z,6.30
2023-01-15T01:41:46.271Z,6.30
2023-01-15T01:44:32.061Z,6.30
2023-01-15T01:47:03.390Z,6.30
2023-01-15T01:49:31.599Z,6.40
2023-01-15T01:52:03.767Z,6.40
2023-01-15T01:54:33.181Z,6.30
2023-01-15T01:57:00.808Z,6.30
2023-01-15T01:59:28.681Z,6.30
2023-01-15T02:01:56.399Z,6.20
2023-01-15T02:04:26.509Z,6.20
2023-01-15T02:06:54.595Z,6.20
2023-01-15T02:09:21.937Z,6.10
2023-01-15T02:11:55.705Z,6.10
2023-01-15T02:14:37.367Z,6.00
2023-01-15T02:17:13.444Z,6.00
2023-01-15T02:20:10.750Z,6.00
2023-01-15T02:23:09.167Z,6.00
2023-01-15T02:26:04.126Z,6.00
2023-01-15T02:28:38.840Z,6.00
2023-01-15T02:31:16.025Z,6.00
2023-01-15T02:33:57.747Z,6.00
2023-01-15T02:36:28.918Z,5.90
2023-01-15T02:39:02.186Z,5.90
2023-01-15T02:41:36.396Z,5.90
2023-01-15T02:44:10.293Z,6.00
2023-01-15T02:46:40.388Z,5.90
2023-01-15T02:49:15.218Z,5.90
2023-01-15T02:52:07.489Z,5.90
2023-01-15T02:54:51.122Z,5.90
2023-01-15T02:57:22.596Z,5.90
2023-01-15T02:59:58.319Z,6.00
2023-01-15T03:02:32.685Z,6.00
2023-01-15T03:05:15.300Z,5.90
2023-01-15T03:07:51.553Z,6.00
2023-01-15T03:10:20.976Z,5.90
2023-01-15T03:13:05.984Z,6.00
2023-01-15T03:16:19.718Z,6.00
2023-01-15T03:18:55.616Z,6.00
2023-01-15T03:21:55.864Z,5.90
2023-01-15T03:24:34.250Z,5.90
2023-01-15T03:27:02.118Z,5.90
2023-01-15T03:29:34.022Z,6.00
2023-01-15T03:32:01.824Z,6.10
2023-01-15T03:34:40.200Z,6.10
2023-01-15T03:37:07.970Z,6.20
2023-01-15T03:39:35.740Z,6.20
2023-01-15T03:42:13.179Z,6.20
2023-01-15T03:45:05.415Z,6.20
2023-01-15T03:48:11.832Z,6.30
2023-01-15T03:50:48.766Z,6.30
2023-01-15T03:53:23.481Z,6.30
2023-01-15T03:56:06.544Z,6.30
2023-01-15T03:58:48.109Z,6.20
2023-01-15T04:01:24.549Z,6.20
2023-01-15T04:03:53.834Z,6.30
2023-01-15T04:06:26.508Z,6.20
2023-01-15T04:08:55.275Z,6.20
2023-01-15T04:11:24.696Z,6.30
2023-01-15T04:13:55.562Z,6.30
2023-01-15T04:16:43.070Z,6.30
2023-01-15T04:19:11.825Z,6.40
2023-01-15T04:21:45.862Z,6.50
2023-01-15T04:24:13.104Z,6.40
2023-01-15T04:26:40.400Z,6.50
2023-01-15T04:29:07.720Z,6.50
2023-01-15T04:31:36.197Z,6.50
2023-01-15T04:34:03.980Z,6.50
2023-01-15T04:36:31.444Z,6.50
2023-01-15T04:38:59.905Z,6.50
2023-01-15T04:41:45.732Z,6.60
2023-01-15T04:44:13.075Z,6.50
2023-01-15T04:46:43.251Z,6.50
2023-01-15T04:49:13.285Z,6.50
2023-01-15T04:51:41.090Z,6.60
2023-01-15T04:54:09.618Z,6.60
2023-01-15T04:56:45.318Z,6.60
2023-01-15T04:59:14.361Z,6.60
2023-01-15T05:01:46.388Z,6.70
2023-01-15T05:04:22.094Z,6.60
2023-01-15T05:06:49.545Z,6.70
2023-01-15T05:09:17.040Z,6.70
2023-01-15T05:11:44.309Z,6.80
2023-01-15T05:14:11.581Z,6.80
2023-01-15T05:16:39.011Z,6.80
2023-01-15T05:19:08.014Z,6.70
2023-01-15T05:21:37.285Z,6.70
2023-01-15T05:24:08.781Z,6.70
2023-01-15T05:26:36.518Z,6.70
2023-01-15T05:29:04.657Z,6.70
2023-01-15T05:31:33.687Z,6.60
2023-01-15T05:34:01.145Z,6.60
2023-01-15T05:36:31.381Z,6.70
2023-01-15T05:39:01.581Z,6.70
2023-01-15T05:41:48.806Z,6.70
2023-01-15T05:44:24.640Z,6.70
2023-01-15T05:46:54.935Z,6.80
2023-01-15T05:49:25.100Z,6.80
2023-01-15T05:51:53.906Z,6.70
2023-01-15T05:54:27.154Z,6.70
2023-01-15T05:56:55.005Z,6.70
2023-01-15T05:59:25.192Z,6.70
2023-01-15T06:01:53.085Z,6.70
2023-01-15T06:04:25.038Z,6.70
2023-01-15T06:06:54.509Z,6.70
2023-01-15T06:09:23.156Z,6.80
2023-01-15T06:11:51.311Z,6.80
2023-01-15T06:14:18.583Z,6.90
2023-01-15T06:16:46.278Z,6.90
2023-01-15T06:19:14.515Z,6.90
2023-01-15T06:21:42.074Z,6.90
2023-01-15T06:24:09.586Z,6.90
2023-01-15T06:26:38.591Z,6.90
2023-01-15T06:29:05.850Z,6.80
2023-01-15T06:31:33.251Z,6.80
2023-01-15T06:34:00.647Z,6.80
2023-01-15T06:36:29.043Z,6.80
2023-01-15T06:38:56.704Z,6.80
2023-01-15T06:41:44.096Z,6.80
2023-01-15T06:44:32.522Z,6.80
2023-01-15T06:47:21.156Z,6.80
2023-01-15T06:49:57.323Z,6.80
2023-01-15T06:52:25.945Z,6.80
2023-01-15T06:54:53.498Z,6.80
2023-01-15T06:57:20.966Z,7.00
2023-01-15T06:59:49.433Z,6.90
2023-01-15T07:02:18.143Z,6.90
2023-01-15T07:04:46.828Z,6.90
2023-01-15T07:07:15.920Z,6.90
2023-01-15T07:09:43.383Z,6.90
2023-01-15T07:12:10.842Z,6.90
2023-01-15T07:14:38.163Z,6.90
2023-01-15T07:17:05.482Z,6.90
2023-01-15T07:19:32.950Z,6.90
2023-01-15T07:22:00.180Z,6.90
2023-01-15T07:24:27.651Z,6.90
2023-01-15T07:26:54.938Z,6.90
2023-01-15T07:29:23.282Z,6.80
2023-01-15T07:31:51.129Z,6.70
2023-01-15T07:34:18.866Z,6.90
2023-01-15T07:36:46.372Z,7.00
2023-01-15T07:39:14.043Z,7.00
2023-01-15T07:42:00.475Z,6.90
2023-01-15T07:44:46.724Z,6.90
2023-01-15T07:47:38.537Z,7.00
2023-01-15T07:50:09.137Z,7.10
2023-01-15T07:52:36.452Z,7.20
2023-01-15T07:55:04.171Z,7.30
2023-01-15T07:57:31.474Z,7.30
2023-01-15T07:59:58.667Z,7.30
2023-01-15T08:02:26.331Z,7.30
2023-01-15T08:04:53.602Z,7.30
2023-01-15T08:07:20.804Z,7.30
2023-01-15T08:09:48.054Z,7.30
2023-01-15T08:12:33.779Z,7.30
2023-01-15T08:15:13.087Z,7.40
2023-01-15T08:17:48.490Z,7.30
2023-01-15T08:20:18.559Z,7.20
2023-01-15T08:22:46.787Z,7.30
2023-01-15T08:25:18.269Z,7.20
2023-01-15T08:27:46.210Z,7.20
2023-01-15T08:30:24.915Z,7.10
2023-01-15T08:32:52.738Z,7.10
2023-01-15T08:35:20.176Z,7.10
2023-01-15T08:37:47.597Z,7.10
2023-01-15T08:40:14.821Z,7.10
2023-01-15T08:42:42.458Z,7.10
2023-01-15T08:45:10.598Z,7.20
2023-01-15T08:47:38.065Z,7.20
2023-01-15T08:50:08.708Z,7.30
2023-01-15T08:52:37.933Z,7.30
2023-01-15T08:55:06.107Z,7.30
2023-01-15T08:57:33.478Z,7.30
2023-01-15T09:00:00.745Z,7.40
2023-01-15T09:02:29.753Z,7.40
2023-01-15T09:04:57.155Z,7.50
2023-01-15T09:07:24.564Z,7.50
2023-01-15T09:09:51.798Z,7.60
2023-01-15T09:12:19.068Z,7.60
2023-01-15T09:14:55.976Z,7.70
2023-01-15T09:17:29.019Z,7.70
2023-01-15T09:19:56.352Z,7.60
2023-01-15T09:22:23.620Z,7.60
2023-01-15T09:24:51.261Z,7.60
2023-01-15T09:27:18.603Z,7.50
2023-01-15T09:29:45.837Z,7.60
2023-01-15T09:32:13.097Z,7.60
2023-01-15T09:34:40.318Z,7.60
2023-01-15T09:37:07.591Z,7.70
2023-01-15T09:39:34.876Z,7.70
2023-01-15T09:42:08.479Z,7.80
2023-01-15T09:44:35.827Z,7.80
2023-01-15T09:47:26.157Z,7.70
2023-01-15T09:50:15.444Z,7.70
2023-01-15T09:52:54.633Z,7.70
2023-01-15T09:55:30.830Z,7.70
2023-01-15T09:58:02.016Z,7.70
2023-01-15T10:00:35.856Z,7.70
2023-01-15T10:03:25.851Z,7.70
2023-01-15T10:06:01.808Z,7.70
2023-01-15T10:08:36.330Z,7.80
2023-01-15T10:11:22.190Z,7.80
2023-01-15T10:13:49.405Z,7.90
2023-01-15T10:16:28.881Z,8.00
2023-01-15T10:18:58.269Z,8.10
2023-01-15T10:21:32.614Z,8.20
2023-01-15T10:24:10.466Z,8.30
2023-01-15T10:26:51.417Z,8.40
2023-01-15T10:29:49.671Z,8.40
2023-01-15T10:32:29.710Z,8.40
2023-01-15T10:35:22.359Z,8.40
2023-01-15T10:38:08.439Z,8.40
2023-01-15T10:41:10.821Z,8.40
2023-01-15T10:44:19.733Z,8.40
2023-01-15T10:46:57.665Z,8.40
2023-01-15T10:49:29.225Z,8.40
2023-01-15T10:52:03.245Z,8.50
2023-01-15T10:54:42.774Z,8.40
2023-01-15T10:57:18.786Z,8.30
2023-01-15T10:59:51.920Z,8.30
2023-01-15T11:02:31.389Z,8.40
2023-01-15T11:04:58.855Z,8.40
2023-01-15T11:08:10.336Z,8.40
2023-01-15T11:10:35.126Z,8.40
2023-01-15T11:13:34.376Z,8.50
2023-01-15T11:16:20.074Z,8.60
2023-01-15T11:19:06.817Z,8.60
2023-01-15T11:21:40.462Z,8.60
2023-01-15T11:24:16.409Z,8.60
2023-01-15T11:26:48.931Z,8.50
2023-01-15T11:29:32.784Z,8.50
2023-01-15T11:32:00.115Z,8.50
2023-01-15T11:34:27.604Z,8.40
2023-01-15T11:37:05.920Z,8.50
2023-01-15T11:39:33.984Z,8.40
2023-01-15T11:42:24.561Z,8.40
2023-01-15T11:45:16.131Z,8.40
2023-01-15T11:48:14.663Z,8.40
2023-01-15T11:50:55.879Z,8.50
2023-01-15T11:53:29.394Z,8.60
2023-01-15T11:56:02.623Z,8.60
2023-01-15T11:58:34.771Z,8.60
2023-01-15T12:01:02.340Z,8.50
2023-01-15T12:03:32.650Z,8.50
2023-01-15T12:06:09.067Z,8.40
2023-01-15T12:09:17.591Z,8.40
2023-01-15T12:12:02.869Z,8.40
2023-01-15T12:14:58.168Z,8.50
2023-01-15T12:17:44.073Z,8.60
2023-01-15T12:20:26.838Z,8.50
2023-01-15T12:23:35.591Z,8.40
2023-01-15T12:26:27.629Z,8.40
2023-01-15T12:29:15.694Z,8.40
2023-01-15T12:32:02.209Z,8.30
2023-01-15T12:34:42.017Z,8.30
2023-01-15T12:37:21.334Z,8.30
2023-01-15T12:39:57.210Z,8.30
2023-01-15T12:42:46.385Z,8.30
2023-01-15T12:45:25.403Z,8.20
2023-01-15T12:48:14.672Z,8.20
2023-01-15T12:50:47.562Z,8.20
2023-01-15T12:53:32.713Z,8.20
2023-01-15T12:56:29.580Z,8.20
2023-01-15T12:59:16.773Z,8.10
2023-01-15T13:02:09.661Z,8.10
2023-01-15T13:04:48.729Z,8.10
2023-01-15T13:07:35.642Z,8.10
2023-01-15T13:10:08.572Z,8.10
2023-01-15T13:12:35.841Z,8.10
2023-01-15T13:15:05.328Z,8.10
2023-01-15T13:18:09.430Z,8.10
2023-01-15T13:20:51.477Z,8.10
2023-01-15T13:23:48.958Z,8.00
2023-01-15T13:26:42.018Z,8.00
2023-01-15T13:29:37.876Z,8.00
2023-01-15T13:32:20.278Z,8.00
2023-01-15T13:34:55.044Z,8.00
2023-01-15T13:37:27.910Z,8.20
2023-01-15T13:40:25.451Z,8.20
2023-01-15T13:42:53.594Z,8.00
2023-01-15T13:45:27.885Z,8.10
2023-01-15T13:48:02.714Z,8.10
2023-01-15T13:50:40.694Z,8.10
2023-01-15T13:53:23.189Z,8.00
2023-01-15T13:55:56.739Z,8.00
2023-01-15T13:58:25.443Z,7.90
2023-01-15T14:01:09.116Z,7.90
2023-01-15T14:03:38.331Z,7.90
2023-01-15T14:06:09.572Z,7.90
2023-01-15T14:08:45.035Z,8.00
2023-01-15T14:11:36.834Z,7.90
2023-01-15T14:14:37.683Z,8.00
2023-01-15T14:17:33.359Z,8.00
2023-01-15T14:20:23.470Z,8.00
2023-01-15T14:23:12.540Z,8.00
2023-01-15T14:26:10.164Z,8.00
2023-01-15T14:29:02.695Z,8.10
2023-01-15T14:31:47.384Z,8.20
2023-01-15T14:34:25.045Z,8.10
2023-01-15T14:36:59.868Z,8.00
2023-01-15T14:39:58.879Z,7.90
2023-01-15T14:42:50.026Z,7.90
2023-01-15T14:45:36.234Z,7.90
2023-01-15T14:48:29.627Z,7.90
2023-01-15T14:51:13.525Z,7.90
2023-01-15T14:53:48.276Z,7.70
2023-01-15T14:56:20.819Z,7.60
2023-01-15T14:59:13.011Z,7.70
2023-01-15T15:01:52.878Z,7.70
2023-01-15T15:04:40.734Z,7.80
2023-01-15T15:07:13.144Z,7.90
2023-01-15T15:10:26.287Z,7.80
2023-01-15T15:13:36.076Z,7.90
2023-01-15T15:16:14.193Z,8.00
2023-01-15T15:18:47.290Z,8.00
2023-01-15T15:21:19.852Z,7.90
2023-01-15T15:23:56.352Z,7.90
2023-01-15T15:26:35.258Z,7.80
2023-01-15T15:29:04.364Z,7.80
2023-01-15T15:31:37.850Z,7.80
2023-01-15T15:34:07.220Z,7.80
2023-01-15T15:36:39.151Z,7.70
2023-01-15T15:39:20.334Z,7.70
2023-01-15T15:42:10.049Z,7.70
2023-01-15T15:45:10.692Z,7.70
2023-01-15T15:47:59.222Z,7.70
2023-01-15T15:50:32.272Z,7.70
2023-01-15T15:53:04.313Z,7.80
2023-01-15T15:55:41.848Z,7.80
2023-01-15T15:58:24.786Z,7.80
2023-01-15T16:00:53.661Z,7.70
2023-01-15T16:03:32.668Z,7.70
2023-01-15T16:06:06.077Z,7.70
2023-01-15T16:08:36.339Z,7.70
2023-01-15T16:11:11.253Z,7.60
2023-01-15T16:13:48.297Z,7.60
2023-01-15T16:16:17.957Z,7.60
2023-01-15T16:18:49.523Z,7.60
2023-01-15T16:21:33.664Z,7.60
2023-01-15T16:24:05.239Z,7.60
2023-01-15T16:26:47.717Z,7.60
2023-01-15T16:29:28.266Z,7.60
2023-01-15T16:31:57.879Z,7.60
2023-01-15T16:34:26.691Z,7.50
2023-01-15T16:36:54.184Z,7.60
2023-01-15T16:39:24.661Z,7.60
2023-01-15T16:41:57.481Z,7.50
2023-01-15T16:44:36.407Z,7.50
2023-01-15T16:47:05.323Z,7.60
2023-01-15T16:49:34.438Z,7.50
2023-01-15T16:52:03.441Z,7.50
2023-01-15T16:54:30.729Z,7.50
2023-01-15T16:57:22.392Z,7.50
2023-01-15T17:00:07.395Z,7.50
2023-01-15T17:02:42.911Z,7.50
2023-01-15T17:05:37.000Z,7.60
2023-01-15T17:08:04.641Z,7.60
2023-01-15T17:10:32.014Z,7.50
2023-01-15T17:12:59.637Z,7.50
2023-01-15T17:15:30.462Z,7.50
2023-01-15T17:17:57.805Z,7.50
2023-01-15T17:20:27.723Z,7.50
2023-01-15T17:22:55.918Z,7.50
2023-01-15T17:25:34.752Z,7.50
2023-01-15T17:28:03.797Z,7.50
2023-01-15T17:30:32.114Z,7.50
2023-01-15T17:33:01.192Z,7.50
2023-01-15T17:35:32.097Z,7.40
2023-01-15T17:37:59.553Z,7.40
2023-01-15T17:40:27.085Z,7.40
2023-01-15T17:42:54.449Z,7.40
2023-01-15T17:45:27.658Z,7.50
2023-01-15T17:47:55.243Z,7.50
2023-01-15T17:50:23.414Z,7.50
2023-01-15T17:52:51.732Z,7.50
2023-01-15T17:55:40.852Z,7.50
2023-01-15T17:58:34.300Z,7.60
2023-01-15T18:01:29.138Z,7.60
2023-01-15T18:04:15.213Z,7.60
2023-01-15T18:06:48.232Z,7.60
2023-01-15T18:09:17.265Z,7.60
2023-01-15T18:11:45.286Z,7.70
2023-01-15T18:14:12.874Z,7.60
2023-01-15T18:16:40.131Z,7.60
2023-01-15T18:19:07.381Z,7.60
2023-01-15T18:21:37.912Z,7.60
2023-01-15T18:24:06.063Z,7.60
2023-01-15T18:26:36.804Z,7.60
2023-01-15T18:29:08.566Z,7.60
2023-01-15T18:31:38.025Z,7.50
2023-01-15T18:34:06.329Z,7.50
2023-01-15T18:36:33.853Z,7.50
2023-01-15T18:39:06.731Z,7.50
2023-01-15T18:41:35.981Z,7.40
2023-01-15T18:44:22.606Z,7.30
2023-01-15T18:46:53.838Z,7.30
2023-01-15T18:49:21.185Z,7.30
2023-01-15T18:52:08.538Z,7.30
2023-01-15T18:54:36.492Z,7.30
2023-01-15T18:57:04.568Z,7.20
2023-01-15T18:59:32.223Z,7.20
2023-01-15T19:02:00.094Z,7.20
2023-01-15T19:04:27.613Z,7.20
2023-01-15T19:06:54.872Z,7.20
2023-01-15T19:09:24.280Z,7.30
2023-01-15T19:11:52.797Z,7.20
2023-01-15T19:14:39.241Z,7.20
2023-01-15T19:17:25.699Z,7.20
2023-01-15T19:19:52.874Z,7.20
2023-01-15T19:22:39.005Z,7.30
2023-01-15T19:25:06.804Z,7.20
2023-01-15T19:27:34.087Z,7.30
2023-01-15T19:30:02.315Z,7.30
2023-01-15T19:32:31.668Z,7.30
2023-01-15T19:34:59.546Z,7.30
2023-01-15T19:37:27.860Z,7.30
2023-01-15T19:39:55.173Z,7.30
2023-01-15T19:42:40.983Z,7.30
2023-01-15T19:45:29.107Z,7.30
2023-01-15T19:48:17.954Z,7.30
2023-01-15T19:50:46.506Z,7.30
2023-01-15T19:53:14.603Z,7.30
2023-01-15T19:55:45.027Z,7.30
2023-01-15T19:58:13.696Z,7.30
2023-01-15T20:00:43.339Z,7.30
2023-01-15T20:03:12.245Z,7.30
2023-01-15T20:05:41.596Z,7.40
2023-01-15T20:08:12.823Z,7.40
2023-01-15T20:10:42.248Z,7.30
2023-01-15T20:13:40.440Z,7.40
2023-01-15T20:16:19.604Z,7.40
2023-01-15T20:18:51.209Z,7.40
2023-01-15T20:21:19.222Z,7.40
2023-01-15T20:23:46.602Z,7.40
2023-01-15T20:26:15.472Z,7.40
2023-01-15T20:28:43.146Z,7.40
2023-01-15T20:31:16.560Z,7.40
2023-01-15T20:33:44.007Z,7.40
2023-01-15T20:36:11.678Z,7.40
2023-01-15T20:38:38.987Z,7.40
2023-01-15T20:41:33.668Z,7.40
2023-01-15T20:44:19.570Z,7.40
2023-01-15T20:46:46.789Z,7.40
2023-01-15T20:49:28.072Z,7.40
2023-01-15T20:51:56.718Z,7.40
2023-01-15T20:54:25.841Z,7.40
2023-01-15T20:56:53.370Z,7.40
2023-01-15T20:59:20.724Z,7.40
2023-01-15T21:01:48.221Z,7.30
2023-01-15T21:04:15.610Z,7.30
2023-01-15T21:06:42.846Z,7.30
2023-01-15T21:09:10.257Z,7.30
2023-01-15T21:11:37.652Z,7.30
2023-01-15T21:14:04.985Z,7.30
2023-01-15T21:16:32.262Z,7.30
2023-01-15T21:19:01.291Z,7.30
2023-01-15T21:21:28.647Z,7.30
2023-01-15T21:23:55.929Z,7.30
2023-01-15T21:26:25.997Z,7.30
2023-01-15T21:28:54.394Z,7.30
2023-01-15T21:31:22.115Z,7.20
2023-01-15T21:33:52.107Z,7.20
2023-01-15T21:36:19.365Z,7.20
2023-01-15T21:38:51.388Z,7.20
2023-01-15T21:41:18.885Z,7.20
2023-01-15T21:44:04.845Z,7.20
2023-01-15T21:46:32.139Z,7.20
2023-01-15T21:48:59.524Z,7.20
2023-01-15T21:51:26.975Z,7.20
2023-01-15T21:53:54.506Z,7.20
2023-01-15T21:56:21.900Z,7.20
2023-01-15T21:58:49.186Z,7.10
2023-01-15T22:01:18.238Z,7.10
2023-01-15T22:03:46.069Z,7.20
2023-01-15T22:06:13.474Z,7.10
2023-01-15T22:08:40.857Z,7.10
2023-01-15T22:11:10.066Z,7.10
2023-01-15T22:13:38.731Z,7.00
2023-01-15T22:16:07.245Z,7.00
2023-01-15T22:18:34.646Z,7.00
2023-01-15T22:21:07.680Z,7.00
2023-01-15T22:23:35.204Z,7.00
2023-01-15T22:26:02.457Z,7.10
2023-01-15T22:28:29.800Z,7.10
2023-01-15T22:30:57.078Z,7.10
2023-01-15T22:33:24.532Z,7.10
2023-01-15T22:35:59.374Z,7.10
2023-01-15T22:38:27.608Z,7.10
2023-01-15T22:40:57.732Z,7.10
2023-01-15T22:43:25.038Z,7.10
2023-01-15T22:45:52.245Z,7.20
2023-01-15T22:48:19.574Z,7.10
2023-01-15T22:50:46.819Z,7.10
2023-01-15T22:53:14.042Z,7.00
2023-01-15T22:55:41.449Z,7.00
2023-01-15T22:58:08.695Z,7.00
2023-01-15T23:00:36.097Z,7.00
2023-01-15T23:03:06.126Z,7.00
2023-01-15T23:05:38.822Z,7.00
2023-01-15T23:08:07.261Z,7.00
2023-01-15T23:10:34.819Z,7.00
2023-01-15T23:13:02.045Z,7.00
2023-01-15T23:15:29.359Z,7.00
2023-01-15T23:17:56.625Z,7.00
2023-01-15T23:20:23.931Z,7.00
2023-01-15T23:22:51.199Z,7.00
2023-01-15T23:25:18.481Z,7.00
2023-01-15T23:27:45.779Z,7.00
2023-01-15T23:30:16.962Z,7.00
2023-01-15T23:32:44.219Z,7.00
2023-01-15T23:35:11.576Z,7.00
2023-01-15T23:37:38.883Z,7.00
2023-01-15T23:40:07.152Z,7.00
2023-01-15T23:42:53.135Z,7.10
2023-01-15T23:45:38.945Z,7.10
2023-01-15T23:48:06.418Z,7.10
2023-01-15T23:50:33.741Z,7.10
2023-01-15T23:53:01.159Z,7.00
2023-01-15T23:55:28.428Z,7.00
2023-01-15T23:57:55.666Z,6.90
